Time;durP1;ratioP1;P1;durP2;ratioP2;P2;SDS_P1;SDS_P2;PMS_P1;PMS_P2;Temp;Humidity;BMP_temperature;BMP_pressure;BME280_temperature;BME280_humidity;BME280_pressure;Samples;Min_cycle;Max_cycle;Signal;HPM_P1;HPM_P2
2021/11/22 00:01:21;;;;;;;6.22;2.33;;;13.70;77.40;;;;;;4272268;27;20047;-64
2021/11/22 00:03:24;;;;;;;7.82;2.75;;;13.70;77.40;;;;;;4265585;27;20042;-69
2021/11/22 00:05:28;;;;;;;7.78;3.05;;;13.70;78.00;;;;;;4275893;27;20047;-68
2021/11/22 00:07:31;;;;;;;6.78;2.72;;;13.70;77.40;;;;;;4274066;27;20277;-69
2021/11/22 00:09:33;;;;;;;7.00;2.60;;;13.70;77.40;;;;;;4259948;27;20346;-73
2021/11/22 00:11:36;;;;;;;6.65;2.78;;;13.70;77.30;;;;;;4260481;27;20047;-68
2021/11/22 00:13:39;;;;;;;7.50;2.95;;;13.70;77.30;;;;;;4270006;27;20051;-67
2021/11/22 00:15:42;;;;;;;6.05;2.63;;;13.70;77.30;;;;;;4258444;27;20051;-72
2021/11/22 00:17:47;;;;;;;8.27;2.75;;;13.70;77.30;;;;;;4262194;27;20282;-70
2021/11/22 00:19:50;;;;;;;9.32;2.58;;;13.70;77.40;;;;;;4273323;27;20095;-71
2021/11/22 00:21:53;;;;;;;6.45;2.40;;;13.60;77.40;;;;;;4273936;27;20107;-68
2021/11/22 00:23:56;;;;;;;7.20;2.58;;;13.60;77.40;;;;;;4264279;27;20103;-71
2021/11/22 00:25:59;;;;;;;7.05;2.83;;;13.70;77.40;;;;;;4275407;27;20269;-69
2021/11/22 00:28:02;;;;;;;6.65;2.58;;;13.70;77.40;;;;;;4264905;27;20051;-68
2021/11/22 00:30:06;;;;;;;7.05;2.83;;;13.60;77.40;;;;;;4272068;27;20081;-68
2021/11/22 00:32:10;;;;;;;5.82;2.47;;;13.70;77.40;;;;;;4273690;27;20327;-73
2021/11/22 00:34:14;;;;;;;5.63;2.30;;;13.60;77.30;;;;;;4263471;27;20096;-71
2021/11/22 00:36:17;;;;;;;7.35;2.70;;;13.60;77.40;;;;;;4274722;27;20255;-74
2021/11/22 00:38:20;;;;;;;6.75;2.45;;;13.70;77.40;;;;;;4265265;27;20047;-71
2021/11/22 00:40:23;;;;;;;7.53;2.80;;;13.60;77.30;;;;;;4271692;27;20054;-65
2021/11/22 00:42:26;;;;;;;7.43;2.92;;;13.60;77.30;;;;;;4270824;27;20077;-65
2021/11/22 00:44:29;;;;;;;5.45;2.85;;;13.60;77.30;;;;;;4269328;27;20047;-66
2021/11/22 00:46:32;;;;;;;6.65;2.90;;;13.60;77.20;;;;;;4239376;28;20052;-71
2021/11/22 00:48:35;;;;;;;6.13;2.67;;;13.60;77.30;;;;;;4265139;27;20285;-73
2021/11/22 00:50:40;;;;;;;6.30;2.75;;;13.60;77.30;;;;;;4262386;27;20109;-74
2021/11/22 00:52:43;;;;;;;6.55;2.72;;;13.60;77.20;;;;;;4260329;27;20051;-74
2021/11/22 00:54:46;;;;;;;7.03;2.67;;;13.60;77.20;;;;;;4262408;27;20271;-65
2021/11/22 00:56:49;;;;;;;6.80;2.72;;;13.60;77.20;;;;;;4274838;27;20054;-69
2021/11/22 00:58:52;;;;;;;10.60;3.03;;;13.60;77.20;;;;;;4270036;27;20046;-69
2021/11/22 01:00:55;;;;;;;7.53;2.97;;;13.60;77.20;;;;;;4262064;27;20051;-72
2021/11/22 01:02:58;;;;;;;6.55;2.97;;;13.60;77.20;;;;;;4257820;27;20051;-74
2021/11/22 01:05:01;;;;;;;7.57;2.72;;;13.60;77.20;;;;;;4267844;27;20116;-73
2021/11/22 01:07:06;;;;;;;6.35;2.78;;;13.60;77.20;;;;;;4255953;27;20047;-68
2021/11/22 01:09:09;;;;;;;6.75;3.10;;;13.60;77.00;;;;;;4261029;27;20055;-70
2021/11/22 01:11:12;;;;;;;9.35;3.00;;;13.60;77.10;;;;;;4269480;27;20050;-66
2021/11/22 01:13:16;;;;;;;5.55;2.72;;;13.60;77.10;;;;;;4272754;27;20072;-65
2021/11/22 01:15:21;;;;;;;9.50;3.30;;;13.60;77.80;;;;;;4261586;27;20059;-70
2021/11/22 01:17:24;;;;;;;6.53;3.20;;;13.60;77.20;;;;;;4274409;27;20039;-65
2021/11/22 01:19:27;;;;;;;9.00;3.42;;;13.60;77.10;;;;;;4266409;27;20397;-66
2021/11/22 01:21:30;;;;;;;7.30;3.08;;;13.50;77.10;;;;;;4268491;27;20054;-74
2021/11/22 01:23:35;;;;;;;6.78;2.75;;;13.60;77.10;;;;;;4274463;27;20338;-74
2021/11/22 01:25:39;;;;;;;7.88;2.90;;;13.60;77.00;;;;;;4271187;27;20076;-75
2021/11/22 01:27:42;;;;;;;7.47;2.87;;;13.50;77.00;;;;;;4274173;27;20099;-72
2021/11/22 01:29:45;;;;;;;6.63;3.00;;;13.60;77.00;;;;;;4267566;27;20096;-70
2021/11/22 01:31:48;;;;;;;8.90;3.67;;;13.50;77.00;;;;;;4268076;27;20051;-70
2021/11/22 01:33:51;;;;;;;5.13;2.70;;;13.50;77.00;;;;;;4272501;27;20051;-70
2021/11/22 01:35:54;;;;;;;6.55;2.85;;;13.50;77.00;;;;;;4268053;27;20047;-67
2021/11/22 01:37:57;;;;;;;7.93;3.15;;;13.50;77.00;;;;;;4256706;27;20216;-69
2021/11/22 01:40:01;;;;;;;8.10;3.25;;;13.50;76.90;;;;;;4262313;27;20230;-70
2021/11/22 01:42:05;;;;;;;8.05;2.85;;;13.50;76.90;;;;;;4263340;27;20071;-67
2021/11/22 01:44:08;;;;;;;6.45;2.72;;;13.50;77.00;;;;;;4257427;27;20111;-72
2021/11/22 01:46:15;;;;;;;7.32;2.80;;;13.50;76.90;;;;;;4268056;27;20087;-65
2021/11/22 01:48:19;;;;;;;7.20;2.97;;;13.50;76.90;;;;;;4256447;27;20081;-68
2021/11/22 01:50:22;;;;;;;7.68;3.13;;;13.50;76.90;;;;;;4242737;27;20355;-73
2021/11/22 01:52:25;;;;;;;6.97;2.88;;;13.50;76.90;;;;;;4267031;27;20242;-70
2021/11/22 01:54:28;;;;;;;10.98;3.30;;;13.50;76.90;;;;;;4272955;27;20091;-74
2021/11/22 01:56:32;;;;;;;6.15;2.55;;;13.50;76.90;;;;;;4261840;27;20051;-67
2021/11/22 01:58:37;;;;;;;7.50;3.00;;;13.50;76.90;;;;;;4273951;27;20051;-73
2021/11/22 02:00:42;;;;;;;6.60;2.88;;;13.50;76.90;;;;;;4268329;27;20042;-65
2021/11/22 02:02:46;;;;;;;9.95;3.67;;;13.50;76.90;;;;;;4267170;27;20284;-68
2021/11/22 02:04:49;;;;;;;8.40;2.95;;;13.50;76.80;;;;;;4272114;27;20099;-70
2021/11/22 02:06:52;;;;;;;6.13;2.63;;;13.50;76.80;;;;;;4261540;27;20051;-74
2021/11/22 02:08:55;;;;;;;7.22;3.00;;;13.50;76.80;;;;;;4273362;27;20346;-67
2021/11/22 02:10:58;;;;;;;6.90;2.97;;;13.40;76.80;;;;;;4249896;27;20105;-70
2021/11/22 02:13:03;;;;;;;7.72;2.85;;;13.50;76.80;;;;;;4271748;27;20051;-74
2021/11/22 02:15:09;;;;;;;7.80;3.38;;;13.50;76.80;;;;;;4271929;27;20243;-69
2021/11/22 02:17:12;;;;;;;8.25;3.20;;;13.40;76.70;;;;;;4261023;27;20054;-68
2021/11/22 02:19:15;;;;;;;7.50;3.28;;;13.50;76.70;;;;;;4273098;27;20201;-67
2021/11/22 02:21:19;;;;;;;7.63;2.88;;;13.40;76.70;;;;;;4268585;27;20095;-72
2021/11/22 02:23:24;;;;;;;6.38;2.83;;;13.40;76.60;;;;;;4261476;27;20261;-75
2021/11/22 02:25:29;;;;;;;7.60;3.03;;;13.50;76.70;;;;;;4256164;27;20055;-72
2021/11/22 02:27:32;;;;;;;10.13;3.88;;;13.50;76.70;;;;;;4267410;27;20339;-71
2021/11/22 02:29:35;;;;;;;6.85;2.78;;;13.40;77.20;;;;;;4255275;27;20121;-77
2021/11/22 02:31:40;;;;;;;8.55;3.15;;;13.40;76.60;;;;;;4242102;27;20047;-71
2021/11/22 02:33:43;;;;;;;7.35;3.03;;;13.40;76.60;;;;;;4265833;27;20050;-74
2021/11/22 02:35:49;;;;;;;9.88;3.63;;;13.50;76.60;;;;;;4271271;27;20051;-68
2021/11/22 02:38:01;;;;;;;6.43;2.90;;;13.40;76.60;;;;;;4267811;27;20351;-70
2021/11/22 02:40:06;;;;;;;9.80;3.03;;;13.40;76.50;;;;;;4237823;28;20718;-73
2021/11/22 02:42:13;;;;;;;7.60;2.90;;;13.40;76.60;;;;;;4242187;28;20055;-68
2021/11/22 02:44:16;;;;;;;7.43;3.03;;;13.40;76.50;;;;;;4267233;27;20050;-71
2021/11/22 02:46:19;;;;;;;9.30;3.42;;;13.40;76.50;;;;;;4271721;27;20335;-64
2021/11/22 02:48:23;;;;;;;9.63;3.28;;;13.40;76.50;;;;;;4266889;27;20235;-65
2021/11/22 02:50:26;;;;;;;7.65;3.35;;;13.40;76.40;;;;;;4255630;27;20043;-64
2021/11/22 02:52:28;;;;;;;9.40;3.30;;;13.40;76.50;;;;;;4261770;27;20276;-70
2021/11/22 02:54:33;;;;;;;11.88;3.53;;;13.40;76.40;;;;;;4261846;27;20198;-73
2021/11/22 02:56:36;;;;;;;10.48;3.42;;;13.40;76.40;;;;;;4255405;27;20051;-74
2021/11/22 02:58:40;;;;;;;9.15;3.10;;;13.40;76.40;;;;;;4260988;27;20063;-65
2021/11/22 03:00:43;;;;;;;10.32;3.95;;;13.40;76.40;;;;;;4272519;27;20050;-68
2021/11/22 03:02:47;;;;;;;9.30;3.40;;;13.40;76.30;;;;;;4250069;27;20055;-66
2021/11/22 03:04:52;;;;;;;6.63;3.38;;;13.40;76.40;;;;;;4272828;27;20327;-67
2021/11/22 03:06:55;;;;;;;8.23;3.13;;;13.40;76.40;;;;;;4271543;27;20095;-70
2021/11/22 03:08:58;;;;;;;10.77;3.63;;;13.40;76.30;;;;;;4266895;27;20089;-67
2021/11/22 03:11:02;;;;;;;9.90;3.22;;;13.30;76.20;;;;;;4255274;28;20401;-67
2021/11/22 03:13:05;;;;;;;9.02;2.75;;;13.30;76.30;;;;;;4261146;27;20371;-64
2021/11/22 03:15:12;;;;;;;10.15;3.75;;;13.30;76.20;;;;;;4261467;27;20055;-70
2021/11/22 03:17:17;;;;;;;9.52;3.58;;;13.30;76.20;;;;;;4255610;27;20087;-64
2021/11/22 03:19:20;;;;;;;7.57;3.70;;;13.30;76.30;;;;;;4260135;27;20051;-68
2021/11/22 03:21:23;;;;;;;8.50;3.42;;;13.30;76.20;;;;;;4272289;27;20071;-65
2021/11/22 03:23:27;;;;;;;9.68;3.30;;;13.30;76.20;;;;;;4266794;27;20054;-67
2021/11/22 03:25:31;;;;;;;7.43;3.38;;;13.30;76.20;;;;;;4260766;27;20047;-69
2021/11/22 03:27:36;;;;;;;11.23;3.22;;;13.30;76.20;;;;;;4257931;27;20051;-67
2021/11/22 03:29:39;;;;;;;8.00;3.13;;;13.30;76.10;;;;;;4270104;27;20075;-71
2021/11/22 03:31:42;;;;;;;11.30;3.47;;;13.30;76.10;;;;;;4258593;27;20092;-69
2021/11/22 03:33:47;;;;;;;7.72;3.30;;;13.30;76.10;;;;;;4263851;27;20039;-72
2021/11/22 03:35:53;;;;;;;9.50;3.05;;;13.30;76.10;;;;;;4265223;27;20047;-73
2021/11/22 03:37:56;;;;;;;9.48;3.42;;;13.30;76.10;;;;;;4259616;27;20281;-70
2021/11/22 03:40:00;;;;;;;7.32;3.38;;;13.30;76.10;;;;;;4269731;27;20243;-71
2021/11/22 03:42:07;;;;;;;8.85;3.38;;;13.30;76.10;;;;;;4258251;27;20335;-74
2021/11/22 03:44:13;;;;;;;11.27;3.78;;;13.30;76.10;;;;;;4263616;27;20047;-72
2021/11/22 03:46:18;;;;;;;7.93;2.90;;;13.30;76.10;;;;;;4264134;27;20058;-64
2021/11/22 03:48:22;;;;;;;9.38;2.92;;;13.30;76.00;;;;;;4258736;27;20092;-72
2021/11/22 03:50:25;;;;;;;10.43;3.40;;;13.30;76.00;;;;;;4270078;27;20063;-75
2021/11/22 03:52:28;;;;;;;8.45;3.47;;;13.30;76.00;;;;;;4258099;27;20104;-67
2021/11/22 03:54:31;;;;;;;8.95;3.20;;;13.20;76.00;;;;;;4264716;27;20046;-75
2021/11/22 03:56:34;;;;;;;9.10;3.03;;;13.30;76.10;;;;;;4264768;27;20112;-73
2021/11/22 03:58:38;;;;;;;8.55;3.35;;;13.20;76.00;;;;;;4258604;27;20055;-69
2021/11/22 04:00:43;;;;;;;9.13;3.67;;;13.20;75.90;;;;;;4251302;27;20104;-73
2021/11/22 04:02:46;;;;;;;9.90;3.20;;;13.30;76.00;;;;;;4258258;27;20051;-71
2021/11/22 04:04:49;;;;;;;7.85;3.00;;;13.20;75.90;;;;;;4262103;27;20050;-71
2021/11/22 04:06:52;;;;;;;8.43;3.05;;;13.20;75.90;;;;;;4267893;27;20046;-74
2021/11/22 04:08:55;;;;;;;9.82;3.38;;;13.20;75.90;;;;;;4274250;27;20079;-73
2021/11/22 04:10:58;;;;;;;9.35;3.40;;;13.20;75.90;;;;;;4255416;27;20092;-71
2021/11/22 04:13:01;;;;;;;9.27;4.18;;;13.20;75.90;;;;;;4255575;27;20051;-73
2021/11/22 04:15:05;;;;;;;7.38;3.42;;;13.20;75.90;;;;;;4262827;27;20039;-68
2021/11/22 04:17:09;;;;;;;10.57;3.33;;;13.20;75.90;;;;;;4265068;27;20081;-73
2021/11/22 04:19:12;;;;;;;9.82;3.40;;;13.20;75.80;;;;;;4257946;27;20051;-69
2021/11/22 04:21:17;;;;;;;9.82;3.42;;;13.20;75.90;;;;;;4260807;27;20622;-74
2021/11/22 04:23:20;;;;;;;7.43;3.20;;;13.20;75.90;;;;;;4274699;27;20256;-74
2021/11/22 04:25:23;;;;;;;9.95;3.15;;;13.20;75.90;;;;;;4269371;27;20051;-74
2021/11/22 04:27:26;;;;;;;8.43;3.40;;;13.20;75.80;;;;;;4267261;27;20086;-70
2021/11/22 04:29:29;;;;;;;8.63;3.35;;;13.20;75.80;;;;;;4274753;27;20050;-71
2021/11/22 04:31:32;;;;;;;7.78;3.25;;;13.20;75.80;;;;;;4271466;27;20054;-66
2021/11/22 04:33:37;;;;;;;10.48;3.58;;;13.20;75.80;;;;;;4258313;27;20051;-70
2021/11/22 04:35:40;;;;;;;8.73;3.38;;;13.20;75.80;;;;;;4258426;27;20111;-66
2021/11/22 04:37:43;;;;;;;8.88;3.28;;;13.20;75.80;;;;;;4265119;27;20043;-70
2021/11/22 04:39:46;;;;;;;7.90;3.05;;;13.20;75.80;;;;;;4255439;27;20193;-73
2021/11/22 04:41:50;;;;;;;6.95;3.13;;;13.20;75.90;;;;;;4270206;27;20050;-70
2021/11/22 04:43:54;;;;;;;8.02;3.72;;;13.20;75.80;;;;;;4274605;27;20051;-71
2021/11/22 04:45:57;;;;;;;10.88;3.65;;;13.20;75.80;;;;;;4270278;27;20058;-67
2021/11/22 04:48:05;;;;;;;8.23;3.30;;;13.20;75.80;;;;;;4264468;27;20080;-64
2021/11/22 04:50:10;;;;;;;7.85;3.03;;;13.20;75.80;;;;;;4274324;27;20115;-74
2021/11/22 04:52:13;;;;;;;10.00;3.20;;;13.10;75.80;;;;;;4261033;27;20054;-74
2021/11/22 04:54:16;;;;;;;8.98;3.53;;;13.10;75.70;;;;;;4273811;27;20404;-74
2021/11/22 04:56:19;;;;;;;8.25;2.90;;;13.10;75.60;;;;;;4269034;27;20106;-68
2021/11/22 04:58:22;;;;;;;8.95;3.53;;;13.10;75.60;;;;;;4265771;27;20050;-65
2021/11/22 05:00:25;;;;;;;8.60;3.47;;;13.10;75.70;;;;;;4274580;27;20065;-74
2021/11/22 05:02:28;;;;;;;6.95;3.28;;;13.20;75.70;;;;;;4261680;27;20080;-74
2021/11/22 05:04:32;;;;;;;9.45;3.35;;;13.10;75.60;;;;;;4274035;27;20076;-72
2021/11/22 05:06:36;;;;;;;9.13;3.47;;;13.10;75.60;;;;;;4270162;27;20047;-70
2021/11/22 05:08:39;;;;;;;10.32;3.50;;;13.10;75.60;;;;;;4263911;27;20123;-72
2021/11/22 05:10:44;;;;;;;9.25;3.83;;;13.10;75.60;;;;;;4257152;27;20059;-66
2021/11/22 05:12:47;;;;;;;8.40;3.47;;;13.10;75.60;;;;;;4267679;27;20042;-74
2021/11/22 05:14:50;;;;;;;7.05;3.30;;;13.10;75.60;;;;;;4253708;27;20111;-71
2021/11/22 05:16:53;;;;;;;9.68;3.60;;;13.10;75.50;;;;;;4258855;27;20273;-63
2021/11/22 05:18:56;;;;;;;8.23;3.35;;;13.10;75.60;;;;;;4266125;27;20327;-69
2021/11/22 05:20:59;;;;;;;9.85;3.25;;;13.10;75.50;;;;;;4256868;27;20273;-67
2021/11/22 05:23:04;;;;;;;8.90;3.33;;;13.10;76.20;;;;;;4268016;27;20055;-70
2021/11/22 05:25:07;;;;;;;;;;;13.10;75.60;;;;;;4258442;27;20075;-75
2021/11/22 05:27:10;;;;;;;9.27;3.95;;;13.10;75.60;;;;;;4253166;27;19919;-73
2021/11/22 05:29:13;;;;;;;11.07;3.55;;;13.10;75.60;;;;;;4267302;27;20047;-65
2021/11/22 05:31:16;;;;;;;12.05;3.88;;;13.10;75.60;;;;;;4256530;27;20422;-67
2021/11/22 05:33:19;;;;;;;9.65;3.60;;;13.10;75.60;;;;;;4265898;27;20038;-67
2021/11/22 05:35:23;;;;;;;8.35;3.60;;;13.10;75.60;;;;;;4257602;27;20055;-70
2021/11/22 05:37:28;;;;;;;6.90;3.45;;;13.10;75.60;;;;;;4256966;27;20047;-73
2021/11/22 05:39:32;;;;;;;6.93;3.35;;;13.10;75.60;;;;;;4265122;27;20050;-63
2021/11/22 05:41:35;;;;;;;10.02;3.58;;;13.10;75.50;;;;;;4256007;27;20411;-71
2021/11/22 05:43:38;;;;;;;10.55;3.50;;;13.10;75.50;;;;;;4265507;27;20118;-71
2021/11/22 05:45:41;;;;;;;9.75;3.35;;;13.10;75.60;;;;;;4259234;27;20069;-68
2021/11/22 05:47:44;;;;;;;10.55;3.85;;;13.00;75.50;;;;;;4258694;27;20047;-74
2021/11/22 05:49:47;;;;;;;7.55;2.95;;;13.10;75.60;;;;;;4262138;27;20046;-71
2021/11/22 05:51:51;;;;;;;8.68;3.80;;;13.10;75.50;;;;;;4272816;27;20077;-70
2021/11/22 05:53:56;;;;;;;7.65;3.33;;;13.00;75.50;;;;;;4262001;27;20115;-73
2021/11/22 05:56:00;;;;;;;8.02;3.65;;;13.00;75.50;;;;;;4269009;27;20054;-65
2021/11/22 05:58:06;;;;;;;7.00;3.08;;;13.10;75.50;;;;;;4272019;27;20076;-73
2021/11/22 06:00:10;;;;;;;11.82;3.33;;;13.10;75.40;;;;;;4261403;27;20043;-70
2021/11/22 06:02:13;;;;;;;7.15;2.42;;;13.00;75.40;;;;;;4273289;27;20103;-70
2021/11/22 06:04:16;;;;;;;7.60;3.70;;;13.00;75.40;;;;;;4260841;27;20055;-70
2021/11/22 06:06:19;;;;;;;8.32;3.72;;;13.00;75.30;;;;;;4269578;27;20047;-73
2021/11/22 06:08:23;;;;;;;9.90;3.83;;;13.00;75.40;;;;;;4271097;27;20073;-67
2021/11/22 06:10:27;;;;;;;11.52;3.80;;;13.00;75.30;;;;;;4261547;27;20323;-70
2021/11/22 06:12:31;;;;;;;9.07;3.70;;;13.00;75.30;;;;;;4270513;27;20139;-69
2021/11/22 06:14:34;;;;;;;12.13;3.90;;;13.00;75.30;;;;;;4259382;27;20088;-71
2021/11/22 06:16:37;;;;;;;8.75;3.92;;;13.00;75.30;;;;;;4269435;27;20051;-73
2021/11/22 06:18:40;;;;;;;9.85;3.90;;;13.00;75.20;;;;;;4271523;27;20339;-64
2021/11/22 06:20:43;;;;;;;11.13;4.40;;;13.00;75.20;;;;;;4249926;27;20047;-68
2021/11/22 06:22:46;;;;;;;9.70;4.03;;;12.90;75.10;;;;;;4256088;27;20108;-64
2021/11/22 06:24:49;;;;;;;9.25;3.85;;;12.90;75.10;;;;;;4257565;27;20051;-72
2021/11/22 06:26:55;;;;;;;11.18;4.53;;;12.90;75.20;;;;;;4266729;27;20091;-70
2021/11/22 06:29:00;;;;;;;9.70;4.07;;;12.90;75.10;;;;;;4268244;27;20092;-71
2021/11/22 06:31:02;;;;;;;9.65;4.20;;;13.00;75.10;;;;;;4258849;27;20055;-64
2021/11/22 06:33:06;;;;;;;10.85;4.32;;;12.90;75.00;;;;;;4270914;27;20285;-71
2021/11/22 06:35:09;;;;;;;10.77;4.25;;;12.90;75.00;;;;;;4266174;27;20049;-67
2021/11/22 06:37:12;;;;;;;10.88;4.88;;;12.90;74.90;;;;;;4259318;27;20185;-67
2021/11/22 06:39:15;;;;;;;9.75;4.10;;;12.90;74.90;;;;;;4254388;27;20050;-64
2021/11/22 06:41:18;;;;;;;10.23;4.57;;;12.90;74.80;;;;;;4265535;27;20084;-65
2021/11/22 06:43:21;;;;;;;11.85;4.72;;;12.90;74.90;;;;;;4255098;27;20096;-67
2021/11/22 06:45:27;;;;;;;9.93;4.68;;;12.90;74.90;;;;;;4263001;27;20050;-74
2021/11/22 06:47:30;;;;;;;8.45;4.25;;;12.90;74.90;;;;;;4259352;27;20059;-71
2021/11/22 06:49:33;;;;;;;10.57;4.65;;;12.90;74.90;;;;;;4255939;27;20399;-69
2021/11/22 06:51:36;;;;;;;10.20;4.22;;;12.90;74.80;;;;;;4265762;27;20051;-72
2021/11/22 06:53:39;;;;;;;11.55;4.68;;;12.80;74.80;;;;;;4255042;27;20107;-66
2021/11/22 06:55:42;;;;;;;12.02;4.30;;;12.80;74.70;;;;;;4262237;27;20047;-65
2021/11/22 06:57:45;;;;;;;9.88;4.20;;;12.80;74.80;;;;;;4259445;27;20107;-66
2021/11/22 06:59:48;;;;;;;8.98;3.85;;;12.80;74.70;;;;;;4258222;27;20281;-65
2021/11/22 07:01:53;;;;;;;10.05;4.40;;;12.80;74.80;;;;;;4267165;27;20063;-73
2021/11/22 07:03:56;;;;;;;9.95;4.47;;;12.80;74.70;;;;;;4255444;28;20058;-66
2021/11/22 07:06:00;;;;;;;10.23;4.13;;;12.80;74.70;;;;;;4262201;27;20095;-74
2021/11/22 07:08:06;;;;;;;8.13;4.55;;;12.80;74.60;;;;;;4259491;27;20100;-70
2021/11/22 07:10:09;;;;;;;9.57;4.13;;;12.80;74.70;;;;;;4255779;27;20088;-70
2021/11/22 07:12:12;;;;;;;10.10;4.78;;;12.80;74.70;;;;;;4260875;27;20099;-73
2021/11/22 07:14:15;;;;;;;11.52;4.78;;;12.80;74.60;;;;;;4272620;27;20103;-68
2021/11/22 07:16:19;;;;;;;10.63;4.57;;;12.80;74.70;;;;;;4265628;27;20054;-68
2021/11/22 07:18:29;;;;;;;8.02;4.10;;;12.80;74.70;;;;;;4247354;27;20102;-69
2021/11/22 07:20:32;;;;;;;9.57;4.18;;;12.80;74.60;;;;;;4270101;27;20055;-69
2021/11/22 07:22:35;;;;;;;10.90;4.40;;;12.80;74.70;;;;;;4260545;27;20051;-65
2021/11/22 07:24:40;;;;;;;10.43;4.80;;;12.80;74.70;;;;;;4268863;27;20050;-68
2021/11/22 07:26:43;;;;;;;9.00;3.90;;;12.80;74.80;;;;;;4264660;27;20043;-65
2021/11/22 07:28:46;;;;;;;8.45;4.28;;;12.80;74.80;;;;;;4265830;27;20047;-74
2021/11/22 07:30:49;;;;;;;10.35;4.55;;;12.80;74.80;;;;;;4270852;27;20158;-74
2021/11/22 07:32:54;;;;;;;7.18;4.03;;;12.80;74.80;;;;;;4259424;27;20051;-68
2021/11/22 07:34:58;;;;;;;6.67;3.93;;;12.80;74.70;;;;;;4272966;27;20051;-70
2021/11/22 07:37:02;;;;;;;9.52;4.28;;;12.80;74.80;;;;;;4265756;27;20051;-75
2021/11/22 07:39:05;;;;;;;9.10;4.03;;;12.80;74.80;;;;;;4267316;27;20335;-72
2021/11/22 07:41:08;;;;;;;10.68;4.15;;;12.80;74.80;;;;;;4269020;27;20054;-74
2021/11/22 07:43:11;;;;;;;8.10;4.07;;;12.70;74.80;;;;;;4259015;27;20055;-72
2021/11/22 07:45:14;;;;;;;8.90;4.22;;;12.80;74.80;;;;;;4272231;27;20050;-64
2021/11/22 07:47:18;;;;;;;8.95;3.88;;;12.80;74.80;;;;;;4264218;27;20120;-73
2021/11/22 07:49:21;;;;;;;9.57;4.10;;;12.80;74.90;;;;;;4266174;27;20276;-70
2021/11/22 07:51:25;;;;;;;7.75;4.40;;;12.80;75.40;;;;;;4270423;27;20062;-69
2021/11/22 07:53:28;;;;;;;8.80;3.63;;;12.70;74.80;;;;;;4248827;28;20055;-74
2021/11/22 07:55:32;;;;;;;10.10;3.80;;;12.80;75.40;;;;;;4254397;28;20104;-68
2021/11/22 07:57:35;;;;;;;12.52;4.43;;;12.80;74.80;;;;;;4259267;27;20054;-64
2021/11/22 07:59:37;;;;;;;9.23;3.95;;;12.70;75.30;;;;;;4260536;27;20329;-70
2021/11/22 08:01:41;;;;;;;14.40;4.60;;;12.80;74.90;;;;;;4255296;27;20098;-70
2021/11/22 08:03:44;;;;;;;6.88;3.85;;;12.80;75.60;;;;;;4266747;27;20335;-71
2021/11/22 08:05:49;;;;;;;14.23;4.00;;;12.80;75.00;;;;;;4254335;28;20047;-76
2021/11/22 08:07:55;;;;;;;10.02;3.90;;;12.80;75.00;;;;;;4260296;27;20107;-76
2021/11/22 08:10:04;;;;;;;9.50;3.55;;;12.70;74.90;;;;;;4261936;27;20355;-64
2021/11/22 08:14:13;;;;;;;9.27;3.80;;;12.80;75.00;;;;;;4261426;27;20080;-67
2021/11/22 08:16:16;;;;;;;11.07;3.67;;;12.80;75.50;;;;;;4259117;27;20103;-69
2021/11/22 08:18:24;;;;;;;8.48;4.28;;;12.80;74.90;;;;;;4262820;27;20096;-68
2021/11/22 08:20:28;;;;;;;8.13;3.53;;;12.80;74.80;;;;;;4263925;27;20043;-69
2021/11/22 08:22:30;;;;;;;10.15;4.30;;;12.80;74.70;;;;;;4260470;27;20198;-66
2021/11/22 08:24:35;;;;;;;7.65;3.65;;;12.80;74.70;;;;;;4267879;27;20051;-74
2021/11/22 08:26:39;;;;;;;8.95;4.15;;;12.80;74.70;;;;;;4253664;27;20051;-76
2021/11/22 08:28:42;;;;;;;7.70;3.72;;;12.80;74.70;;;;;;4258409;27;20051;-72
2021/11/22 08:30:45;;;;;;;6.53;3.15;;;12.80;74.70;;;;;;4262117;27;20059;-77
2021/11/22 08:32:50;;;;;;;9.20;4.07;;;12.80;74.70;;;;;;4257714;27;20339;-71
2021/11/22 08:34:53;;;;;;;9.10;3.88;;;12.80;74.80;;;;;;4268915;27;20265;-72
2021/11/22 08:36:55;;;;;;;12.13;4.18;;;12.80;74.90;;;;;;4257427;27;20047;-64
2021/11/22 08:38:58;;;;;;;7.03;3.63;;;12.80;74.60;;;;;;4263803;27;20083;-64
2021/11/22 08:41:08;;;;;;;7.65;3.72;;;12.80;74.80;;;;;;4263024;27;20055;-70
2021/11/22 08:43:19;;;;;;;11.50;4.10;;;12.80;74.90;;;;;;4254820;27;20054;-68
2021/11/22 08:45:32;;;;;;;9.65;3.55;;;12.80;75.30;;;;;;4263458;27;20047;-70
2021/11/22 08:47:45;;;;;;;9.38;3.75;;;12.70;75.50;;;;;;4258393;27;20059;-73
2021/11/22 08:49:51;;;;;;;10.43;3.50;;;12.80;75.40;;;;;;4273776;27;20043;-66
2021/11/22 08:51:56;;;;;;;6.78;3.38;;;12.70;75.60;;;;;;4275110;27;20047;-67
2021/11/22 08:54:01;;;;;;;9.48;3.65;;;12.80;75.80;;;;;;4271449;27;20332;-68
2021/11/22 08:56:07;;;;;;;8.68;3.70;;;12.80;75.90;;;;;;4264305;27;20110;-68
2021/11/22 08:58:11;;;;;;;7.57;3.50;;;12.80;75.60;;;;;;4274185;27;20054;-73
2021/11/22 09:00:18;;;;;;;8.27;3.33;;;12.80;75.60;;;;;;4262958;27;20096;-71
2021/11/22 09:02:21;;;;;;;7.63;3.90;;;12.80;75.50;;;;;;4272982;27;20051;-70
2021/11/22 09:04:26;;;;;;;11.45;4.43;;;12.80;75.50;;;;;;4271790;27;20196;-67
2021/11/22 09:06:34;;;;;;;11.82;3.47;;;12.80;75.50;;;;;;4265009;27;20042;-75
2021/11/22 09:08:37;;;;;;;7.90;3.72;;;12.80;75.40;;;;;;4274413;27;20050;-73
2021/11/22 09:10:40;;;;;;;6.13;3.05;;;12.80;75.40;;;;;;4262423;27;20123;-68
2021/11/22 09:12:45;;;;;;;11.73;4.28;;;12.90;75.40;;;;;;4273211;27;20049;-71
2021/11/22 09:14:50;;;;;;;6.93;3.58;;;12.90;75.40;;;;;;4270514;27;20350;-68
2021/11/22 09:16:54;;;;;;;6.88;3.80;;;12.90;75.30;;;;;;4263293;27;20064;-64
2021/11/22 09:19:00;;;;;;;6.95;3.20;;;12.90;75.20;;;;;;4273582;27;20220;-71
2021/11/22 09:21:05;;;;;;;6.65;3.58;;;12.90;75.30;;;;;;4259880;27;20039;-67
2021/11/22 09:23:09;;;;;;;7.57;3.20;;;12.90;75.10;;;;;;4273769;27;20042;-72
2021/11/22 09:25:12;;;;;;;5.88;3.45;;;12.90;75.00;;;;;;4270867;27;20200;-68
2021/11/22 09:27:15;;;;;;;5.75;3.65;;;13.00;75.10;;;;;;4265638;27;20099;-67
2021/11/22 09:29:20;;;;;;;8.63;3.72;;;13.00;74.80;;;;;;4274122;27;20100;-69
2021/11/22 09:31:24;;;;;;;10.05;3.60;;;13.00;74.90;;;;;;4261594;27;20054;-66
2021/11/22 09:33:27;;;;;;;7.28;3.55;;;13.00;74.80;;;;;;4273338;27;20103;-73
2021/11/22 09:35:35;;;;;;;5.43;2.88;;;13.00;74.80;;;;;;4269927;27;20065;-64
2021/11/22 09:37:40;;;;;;;5.75;2.88;;;13.00;74.80;;;;;;4263489;27;20365;-69
2021/11/22 09:39:45;;;;;;;4.90;2.78;;;13.00;74.70;;;;;;4271002;27;20135;-67
2021/11/22 09:41:49;;;;;;;7.47;3.40;;;13.00;74.60;;;;;;4266130;27;20047;-67
2021/11/22 09:43:54;;;;;;;10.40;3.58;;;13.10;74.70;;;;;;4254964;27;20088;-64
2021/11/22 09:45:59;;;;;;;8.45;3.60;;;13.00;74.50;;;;;;4260263;27;20099;-66
2021/11/22 09:48:03;;;;;;;6.22;3.20;;;13.00;74.30;;;;;;4265228;27;20228;-74
2021/11/22 09:50:08;;;;;;;4.45;2.50;;;13.00;74.10;;;;;;4270577;27;20174;-73
2021/11/22 09:52:11;;;;;;;;;;;13.00;74.20;;;;;;4268973;27;20278;-76
2021/11/22 09:54:16;;;;;;;7.25;3.75;;;13.00;74.00;;;;;;4256012;27;19921;-75
2021/11/22 09:56:20;;;;;;;8.38;2.90;;;13.00;74.00;;;;;;4258883;27;20062;-71
2021/11/22 09:58:24;;;;;;;6.10;2.35;;;13.00;74.00;;;;;;4263299;27;20042;-72
2021/11/22 10:00:33;;;;;;;5.22;2.95;;;13.00;73.80;;;;;;4272215;27;20339;-75
2021/11/22 10:02:43;;;;;;;8.80;3.28;;;13.00;73.80;;;;;;4272873;27;20103;-68
2021/11/22 10:04:46;;;;;;;4.53;3.10;;;13.10;73.80;;;;;;4256914;27;20051;-71
2021/11/22 10:06:52;;;;;;;5.75;2.80;;;13.10;73.70;;;;;;4258629;27;20480;-72
2021/11/22 10:08:56;;;;;;;8.20;3.17;;;13.10;73.60;;;;;;4261828;27;20096;-75
2021/11/22 10:11:00;;;;;;;5.53;2.97;;;13.10;73.70;;;;;;4256267;27;20220;-75
2021/11/22 10:13:20;;;;;;;5.85;3.08;;;13.10;73.70;;;;;;4267848;27;20054;-75
2021/11/22 10:15:25;;;;;;;8.10;3.00;;;13.10;73.60;;;;;;4254803;27;20052;-64
2021/11/22 10:17:33;;;;;;;5.18;2.83;;;13.10;73.50;;;;;;4240152;27;20340;-75
2021/11/22 10:19:39;;;;;;;6.93;2.90;;;13.20;73.50;;;;;;4262363;27;20438;-64
2021/11/22 10:21:42;;;;;;;5.85;2.58;;;13.10;73.30;;;;;;4259868;27;20051;-64
2021/11/22 10:23:48;;;;;;;7.45;2.85;;;13.10;73.30;;;;;;4256815;27;20043;-68
2021/11/22 10:25:53;;;;;;;5.35;2.60;;;13.10;73.70;;;;;;4262633;27;20042;-69
2021/11/22 10:28:04;;;;;;;5.82;2.65;;;13.10;73.20;;;;;;4263719;27;20277;-68
2021/11/22 10:30:22;;;;;;;5.97;2.70;;;13.10;73.20;;;;;;4262850;27;20054;-73
2021/11/22 10:32:33;;;;;;;6.07;2.55;;;13.10;72.80;;;;;;4252579;27;20273;-69
2021/11/22 10:34:38;;;;;;;8.10;3.22;;;13.10;73.10;;;;;;4261673;27;20365;-65
2021/11/22 10:36:41;;;;;;;6.22;3.00;;;13.10;72.80;;;;;;4249151;27;20107;-72
2021/11/22 10:38:47;;;;;;;4.07;2.72;;;13.10;72.80;;;;;;4269709;27;20091;-66
2021/11/22 10:40:56;;;;;;;8.80;2.75;;;13.20;73.40;;;;;;4255170;27;20043;-69
2021/11/22 10:42:59;;;;;;;5.25;2.78;;;13.10;72.80;;;;;;4257663;27;20103;-64
2021/11/22 10:45:03;;;;;;;4.47;2.42;;;13.10;72.70;;;;;;4261346;27;20216;-65
2021/11/22 10:47:13;;;;;;;7.13;2.65;;;13.20;72.90;;;;;;4255519;27;20261;-74